Accueil
METAR-TAF:

METAR-TAF

Aéroports :

Cape Romanzof, Alaska, États-Unis

latitude: 61-47N, longitude: 166-02W, altitude: 139 m

Observation

Le bulletin a été fait il y a 29 minutes, à 18:29 UTC
Vent 16 kt de sud-ouest
Température 5°C
Humidité 100%
Pression 997 hPa
Visibilité: 9.7 km
Nuages fragmentés à une hauteur de 400 ft
faibles averses de pluie

METAR: PACZ 131829Z AUTO 22016KT 6SM -SHRA BKN004 05/05 A2945 RMK AO2 SLP975

Heure: 10:58 (18:58 UTC)


TAF: absent

Observations et prévisions météorologiques de plus de 4000 aéroports (messages METAR et TAF).

Les stations disponibles sont représentées par des disques jaunes et rouges sur la carte.

Passer la souris dessus pour voir le nom de la station.

Cliquer dessus pour voir les observations et prévisions météorologiques.

Pour changer de carte: cliquez sur les boutons verts avec une croix noire pour zoomer, sur le bouton vert avec un tiret pour effectuer un zoom arrière, ou sur les flèches vertes pour les cartes adjacentes.


METAR-TAF: